SondeTracker

Meteorological Radiosondes Database

Operations

Sounding was ended - last measurement: 2022-12-07 13:01:14z

MAP
About Radiosonde

Number: T3210639

Launch Site: Confins (BR)

Type: RS41-SGP

AUX: NO

Frequency: 404.000 MHz

Max Speed: 100 km/h at 13434 m

Average Speed: 55.82 km/h

Max Altitude: 25111 m

Average Ascent Speed: 6.33 m/s

Average Descent Speed: 11.60 m/s

Status: UNKNOWN

Status Changes
Launch Site Type AUX Frequency Status Finder Landing Point Description Changes made by
APRS Statistics

Received Frames: 68

First Frame [UTC]: 2022-12-07 12:08:20z

Last Frame [UTC]: 2022-12-07 13:01:14z

Receivers: PY4CCL-11

Flight Time: 00:52:54 h

Distance From First Measurement: 32.17 km

Nearest City: Sete Lagoas (BR) [27.84 km]

Nearest Hunter: PU4LSB [53.40 km]

Ground Altitude: 731 m

Distance from QTH: 0.00 km

APRS Data
Receiver Number Date/Time [UTC] φ λ Course [°] Speed [km/h] Altitude [m] Description
PY4CCL-11T32106392022-12-07 13:01:14-19.3244-44.025565639689Clb=-14.7m/s p=301.6hPa t=-31.4C h=71.3% 404.000MHz Type=RS41-SGP TxOff=8h8m rdzTTGOsonde
PY4CCL-11T32106392022-12-07 13:00:52-19.326-44.028761639988Clb=-10.9m/s p=288.9hPa t=-34.2C h=81.0% 404.000MHz Type=RS41-SGP TxOff=8h8m rdzTTGOsonde
PY4CCL-11T32106392022-12-07 13:00:10-19.3299-44.0344496510552Clb=-11.6m/s p=266.5hPa t=-38.8C h=23.9% 404.000MHz Type=RS41-SGP TxOff=8h9m rdzTTGOsonde
PY4CCL-11T32106392022-12-07 12:58:48-19.3405-44.044337011372Clb=-7.6m/s p=236.1hPa t=-45.9C h=54.2% 404.000MHz Type=RS41-SGP TxOff=8h11m rdzTTGOsonde
PY4CCL-11T32106392022-12-07 12:58:28-19.3434-44.0461367211522Clb=-7.8m/s p=230.8hPa t=-47.2C h=54.5% 404.000MHz Type=RS41-SGP TxOff=8h11m rdzTTGOsonde
PY4CCL-11T32106392022-12-07 12:58:08-19.3464-44.0483367411673Clb=-7.5m/s p=225.6hPa t=-48.2C h=24.5% 404.000MHz Type=RS41-SGP rdzTTGOsonde
PY4CCL-11T32106392022-12-07 12:57:48-19.3495-44.0503297211827Clb=-7.5m/s p=220.4hPa t=-49.1C h=8.6% 404.000MHz Type=RS41-SGP rdzTTGOsonde
PY4CCL-11T32106392022-12-07 12:57:00-19.3573-44.0546287812201Clb=-8.2m/s p=208.1hPa t=-52.1C h=9.3% 404.000MHz Type=RS41-SGP TxOff=8h13m rdzTTGOsonde
PY4CCL-11T32106392022-12-07 12:55:56-19.3685-44.0597267412727Clb=-8.3m/s p=191.9hPa t=-56.2C h=11.9% 404.000MHz Type=RS41-SGP TxOff=8h13m rdzTTGOsonde
PY4CCL-11T32106392022-12-07 12:55:14-19.3763-44.0632238713077Clb=-8.7m/s p=181.5hPa t=-58.6C h=14.1% 404.000MHz Type=RS41-SGP TxOff=8h14m rdzTTGOsonde
PY4CCL-11T32106392022-12-07 12:54:40-19.39-44.0672108113640Clb=-9.0m/s p=165.9hPa t=-62.5C h=15.2% 404.000MHz Type=RS41-SGP TxOff=8h15m rdzTTGOsonde
PY4CCL-11T32106392022-12-07 12:53:50-19.3942-44.068138713820Clb=-9.2m/s p=161.2hPa t=-63.7C h=15.9% 404.000MHz Type=RS41-SGP TxOff=8h16m rdzTTGOsonde
PY4CCL-11T32106392022-12-07 12:53:30-19.3984-44.068888513997Clb=-9.1m/s p=156.5hPa t=-65.0C h=14.3% 404.000MHz Type=RS41-SGP TxOff=8h16m rdzTTGOsonde
PY4CCL-11T32106392022-12-07 12:53:10-19.4025-44.069228014178Clb=-9.0m/s p=152.0hPa t=-66.2C h=13.7% 404.000MHz Type=RS41-SGP TxOff=8h16m rdzTTGOsonde
PY4CCL-11T32106392022-12-07 12:52:50-19.4066-44.06913598314358Clb=-9.0m/s p=147.5hPa t=-67.2C h=13.3% 404.000MHz Type=RS41-SGP TxOff=8h17m rdzTTGOsonde
PY4CCL-11T32106392022-12-07 12:52:08-19.4154-44.06813468714736Clb=-8.8m/s p=138.6hPa t=-68.6C h=12.2% 404.000MHz Type=RS41-SGP TxOff=8h18m rdzTTGOsonde
PY4CCL-11T32106392022-12-07 12:51:26-19.4235-44.06393288515098Clb=-8.7m/s p=130.5hPa t=-69.7C h=12.4% 404.000MHz Type=RS41-SGP rdzTTGOsonde
PY4CCL-11T32106392022-12-07 12:50:24-19.4299-44.05692954115676Clb=-9.4m/s p=118.4hPa t=-73.4C h=12.3% 404.000MHz Type=RS41-SGP TxOff=8h19m rdzTTGOsonde
PY4CCL-11T32106392022-12-07 12:50:04-19.4309-44.0553044615871Clb=-9.7m/s p=114.5hPa t=-74.1C h=12.3% 404.000MHz Type=RS41-SGP TxOff=8h19m rdzTTGOsonde
PY4CCL-11T32106392022-12-07 12:44:48-19.4423-44.01242874819524Clb=-13.7m/s p=61.5hPa t=-70.7C h=3.0% 404.000MHz Type=RS41-SGP rdzTTGOsonde
PY4CCL-11T32106392022-12-07 12:42:12-19.4445-43.99792743121824Clb=-16.1m/s p=42.1hPa t=-64.6C h=1.4% 404.000MHz Type=RS41-SGP rdzTTGOsonde
PY4CCL-11T32106392022-12-07 12:41:08-19.4426-43.99232452222912Clb=-18.5m/s p=35.4hPa t=-62.8C h=1.0% 404.000MHz Type=RS41-SGP TxOff=8h29m rdzTTGOsonde
PY4CCL-11T32106392022-12-07 12:40:06-19.4432-43.98743043724076Clb=-19.7m/s p=29.4hPa t=-60.7C h=0.9% 404.000MHz Type=RS41-SGP rdzTTGOsonde
PY4CCL-11T32106392022-12-07 12:39:24-19.4427-43.98222473324881Clb=-18.7m/s p=25.9hPa t=-54.1C h=0.5% 404.000MHz Type=RS41-SGP rdzTTGOsonde
PY4CCL-11T32106392022-12-07 12:39:04-19.4422-43.98042574325111Clb=7.1m/s p=24.9hPa t=-52.9C h=0.5% 404.000MHz Type=RS41-SGP rdzTTGOsonde
PY4CCL-11T32106392022-12-07 12:38:02-19.4395-43.97462415724699Clb=7.8m/s p=26.5hPa t=-55.3C h=0.7% 404.000MHz Type=RS41-SGP rdzTTGOsonde
PY4CCL-11T32106392022-12-07 12:37:42-19.4387-43.97222474824581Clb=6.8m/s p=27.0hPa t=-56.8C h=0.8% 404.000MHz Type=RS41-SGP rdzTTGOsonde
PY4CCL-11T32106392022-12-07 12:36:40-19.4387-43.96422904624234Clb=5.1m/s p=28.6hPa t=-60.7C h=1.0% 404.000MHz Type=RS41-SGP rdzTTGOsonde
PY4CCL-11T32106392022-12-07 12:35:58-19.4407-43.96073023323972Clb=4.8m/s p=29.8hPa t=-60.5C h=1.0% 404.000MHz Type=RS41-SGP rdzTTGOsonde
PY4CCL-11T32106392022-12-07 12:35:36-19.4408-43.962411523828Clb=7.5m/s p=30.5hPa t=-60.1C h=0.9% 404.000MHz Type=RS41-SGP rdzTTGOsonde
PY4CCL-11T32106392022-12-07 12:35:16-19.4406-43.95932271523696Clb=7.2m/s p=31.1hPa t=-60.1C h=1.0% 404.000MHz Type=RS41-SGP rdzTTGOsonde
PY4CCL-11T32106392022-12-07 12:34:14-19.4412-43.95542864123290Clb=5.9m/s p=33.2hPa t=-60.5C h=1.1% 404.000MHz Type=RS41-SGP rdzTTGOsonde
PY4CCL-11T32106392022-12-07 12:33:32-19.4416-43.95112824123019Clb=8.7m/s p=34.6hPa t=-62.7C h=1.3% 404.000MHz Type=RS41-SGP rdzTTGOsonde
PY4CCL-11T32106392022-12-07 12:33:12-19.4416-43.94922702422893Clb=8.2m/s p=35.4hPa t=-62.1C h=1.3% 404.000MHz Type=RS41-SGP rdzTTGOsonde
PY4CCL-11T32106392022-12-07 12:32:52-19.4412-43.94792303722761Clb=5.2m/s p=36.1hPa t=-61.7C h=1.3% 404.000MHz Type=RS41-SGP rdzTTGOsonde
PY4CCL-11T32106392022-12-07 12:32:32-19.4401-43.94652473722638Clb=6.7m/s p=36.8hPa t=-61.3C h=1.4% 404.000MHz Type=RS41-SGP rdzTTGOsonde
PY4CCL-11T32106392022-12-07 12:31:50-19.4377-43.94262474622373Clb=6.9m/s p=38.4hPa t=-62.1C h=1.6% 404.000MHz Type=RS41-SGP rdzTTGOsonde
PY4CCL-11T32106392022-12-07 12:30:28-19.438-43.93422804121861Clb=6.0m/s p=41.7hPa t=-64.6C h=2.2% 404.000MHz Type=RS41-SGP rdzTTGOsonde
PY4CCL-11T32106392022-12-07 12:30:08-19.4385-43.93283032021737Clb=5.5m/s p=42.5hPa t=-65.2C h=2.4% 404.000MHz Type=RS41-SGP rdzTTGOsonde
PY4CCL-11T32106392022-12-07 12:29:26-19.4381-43.9292764121473Clb=7.3m/s p=44.4hPa t=-66.2C h=2.7% 404.000MHz Type=RS41-SGP rdzTTGOsonde
PY4CCL-11T32106392022-12-07 12:28:44-19.4387-43.92512784321205Clb=8.1m/s p=46.4hPa t=-66.3C h=3.1% 404.000MHz Type=RS41-SGP rdzTTGOsonde
PY4CCL-11T32106392022-12-07 12:28:24-19.4388-43.92272744821078Clb=6.5m/s p=47.4hPa t=-66.9C h=3.3% 404.000MHz Type=RS41-SGP rdzTTGOsonde
PY4CCL-11T32106392022-12-07 12:27:42-19.4398-43.91822914620816Clb=5.9m/s p=49.5hPa t=-67.3C h=3.9% 404.000MHz Type=RS41-SGP rdzTTGOsonde
PY4CCL-11T32106392022-12-07 12:27:22-19.4404-43.91652853120683Clb=8.1m/s p=50.6hPa t=-67.3C h=3.7% 404.000MHz Type=RS41-SGP rdzTTGOsonde
PY4CCL-11T32106392022-12-07 12:26:20-19.44-43.90992874620309Clb=4.1m/s p=53.9hPa t=-69.6C h=4.9% 404.000MHz Type=RS41-SGP rdzTTGOsonde
PY4CCL-11T32106392022-12-07 12:25:38-19.4407-43.90522754820053Clb=6.2m/s p=56.1hPa t=-69.9C h=5.7% 404.000MHz Type=RS41-SGP rdzTTGOsonde
PY4CCL-11T32106392022-12-07 12:24:36-19.4408-43.89832554619676Clb=6.4m/s p=59.8hPa t=-69.3C h=6.3% 404.000MHz Type=RS41-SGP rdzTTGOsonde
PY4CCL-11T32106392022-12-07 12:24:16-19.4407-43.89612864819554Clb=4.5m/s p=61.0hPa t=-70.5C h=7.3% 404.000MHz Type=RS41-SGP rdzTTGOsonde
PY4CCL-11T32106392022-12-07 12:23:14-19.4428-43.88762764619205Clb=5.1m/s p=64.7hPa t=-71.0C h=8.8% 404.000MHz Type=RS41-SGP rdzTTGOsonde
PY4CCL-11T32106392022-12-07 12:22:10-19.4425-43.88052615718849Clb=5.4m/s p=68.7hPa t=-72.9C h=10.9% 404.000MHz Type=RS41-SGP rdzTTGOsonde
PY4CCL-11T32106392022-12-07 12:21:50-19.4425-43.87742805418742Clb=4.1m/s p=69.9hPa t=-73.2C h=10.8% 404.000MHz Type=RS41-SGP rdzTTGOsonde
PY4CCL-11T32106392022-12-07 12:21:08-19.4434-43.87272823018500Clb=5.1m/s p=72.9hPa t=-73.9C h=12.4% 404.000MHz Type=RS41-SGP rdzTTGOsonde
PY4CCL-11T32106392022-12-07 12:20:06-19.4431-43.86562584818143Clb=8.1m/s p=77.5hPa t=-73.9C h=13.1% 404.000MHz Type=RS41-SGP rdzTTGOsonde
PY4CCL-11T32106392022-12-07 12:19:24-19.4426-43.85972574317857Clb=11.8m/s p=81.3hPa t=-73.5C h=12.8% 404.000MHz Type=RS41-SGP rdzTTGOsonde
PY4CCL-11T32106392022-12-07 12:18:42-19.4434-43.8542785917603Clb=5.4m/s p=84.9hPa t=-74.1C h=14.8% 404.000MHz Type=RS41-SGP rdzTTGOsonde
PY4CCL-11T32106392022-12-07 12:18:22-19.4441-43.85062876717491Clb=4.0m/s p=86.5hPa t=-74.1C h=15.4% 404.000MHz Type=RS41-SGP rdzTTGOsonde
PY4CCL-11T32106392022-12-07 12:17:40-19.4468-43.84323027817248Clb=6.1m/s p=90.2hPa t=-76.1C h=15.3% 404.000MHz Type=RS41-SGP rdzTTGOsonde
PY4CCL-11T32106392022-12-07 12:17:20-19.4486-43.83993026517134Clb=6.3m/s p=92.0hPa t=-76.9C h=16.0% 404.000MHz Type=RS41-SGP rdzTTGOsonde
PY4CCL-11T32106392022-12-07 12:17:00-19.4502-43.83642977617017Clb=5.8m/s p=93.9hPa t=-76.5C h=16.3% 404.000MHz Type=RS41-SGP rdzTTGOsonde
PY4CCL-11T32106392022-12-07 12:16:40-19.4522-43.83283038116902Clb=4.1m/s p=95.8hPa t=-76.7C h=16.2% 404.000MHz Type=RS41-SGP rdzTTGOsonde
PY4CCL-11T32106392022-12-07 12:15:58-19.4559-43.82673035616674Clb=6.1m/s p=99.8hPa t=-76.8C h=16.5% 404.000MHz Type=RS41-SGP rdzTTGOsonde
PY4CCL-11T32106392022-12-07 12:15:38-19.4574-43.82392996316556Clb=3.6m/s p=101.7hPa t=-76.1C h=15.5% 404.000MHz Type=RS41-SGP rdzTTGOsonde
PY4CCL-11T32106392022-12-07 12:14:56-19.4607-43.81872994816313Clb=4.8m/s p=106.0hPa t=-75.3C h=15.6% 404.000MHz Type=RS41-SGP rdzTTGOsonde
PY4CCL-11T32106392022-12-07 12:13:48-19.4651-43.8123084115876Clb=5.5m/s p=114.4hPa t=-73.3C h=12.8% 404.000MHz Type=RS41-SGP rdzTTGOsonde
PY4CCL-11T32106392022-12-07 12:10:04-19.4964-43.794729414169Clb=4.5m/s p=151.9hPa t=-65.2C h=14.8% 404.000MHz Type=RS41-SGP rdzTTGOsonde
PY4CCL-11T32106392022-12-07 12:09:02-19.511-43.7976169813706Clb=5.4m/s p=163.8hPa t=-63.1C 404.000MHz Type=RS41-SGP rdzTTGOsonde
PY4CCL-11T32106392022-12-07 12:08:40-19.516-43.7991128713547Clb=7.0m/s p=168.0hPa t=-61.7C 404.000MHz Type=RS41-SGP rdzTTGOsonde
PY4CCL-11T32106392022-12-07 12:08:20-19.5207-43.80021610013434Clb=7.9m/s p=171.1hPa t=-61.1C 404.000MHz Type=RS41-SGP rdzTTGOsonde